createdAt,value
2018-12-07T00:01:38.258Z,10.20
2018-12-07T00:04:06.719Z,10.20
2018-12-07T00:06:35.989Z,10.10
2018-12-07T00:09:06.253Z,10.20
2018-12-07T00:11:34.625Z,10.10
2018-12-07T00:14:02.954Z,10.00
2018-12-07T00:16:31.379Z,9.90
2018-12-07T00:18:59.808Z,9.80
2018-12-07T00:21:28.138Z,9.70
2018-12-07T00:23:56.460Z,9.60
2018-12-07T00:26:24.965Z,9.60
2018-12-07T00:28:54.251Z,9.50
2018-12-07T00:31:22.533Z,9.50
2018-12-07T00:33:50.947Z,9.50
2018-12-07T00:36:19.285Z,9.50
2018-12-07T00:38:47.604Z,9.50
2018-12-07T00:41:15.918Z,9.50
2018-12-07T00:43:44.256Z,9.40
2018-12-07T00:46:12.549Z,9.40
2018-12-07T00:48:40.880Z,9.40
2018-12-07T00:51:09.247Z,9.40
2018-12-07T00:53:37.621Z,9.40
2018-12-07T00:56:06.011Z,9.40
2018-12-07T00:58:34.379Z,9.40
2018-12-07T01:01:03.786Z,9.40
2018-12-07T01:03:32.558Z,9.40
2018-12-07T01:06:01.030Z,9.40
2018-12-07T01:08:29.407Z,9.50
2018-12-07T01:10:57.739Z,9.40
2018-12-07T01:13:26.133Z,9.40
2018-12-07T01:15:54.465Z,9.40
2018-12-07T01:18:22.924Z,9.40
2018-12-07T01:20:51.362Z,9.50
2018-12-07T01:23:20.633Z,9.60
2018-12-07T01:25:49.060Z,9.60
2018-12-07T01:28:17.363Z,9.60
2018-12-07T01:30:45.685Z,9.70
2018-12-07T01:33:14.017Z,9.70
2018-12-07T01:35:42.413Z,9.80
2018-12-07T01:38:10.739Z,9.70
2018-12-07T01:40:39.170Z,9.70
2018-12-07T01:43:08.498Z,9.70
2018-12-07T01:45:37.767Z,9.80
2018-12-07T01:48:07.079Z,9.80
2018-12-07T01:50:35.516Z,9.80
2018-12-07T01:53:03.849Z,9.80
2018-12-07T01:55:32.242Z,9.80
2018-12-07T01:58:01.461Z,9.90
2018-12-07T02:00:29.747Z,9.90
2018-12-07T02:02:58.047Z,10.00
2018-12-07T02:05:27.551Z,10.00
2018-12-07T02:07:55.961Z,10.10
2018-12-07T02:10:24.366Z,10.20
2018-12-07T02:12:53.587Z,10.20
2018-12-07T02:15:21.921Z,10.20
2018-12-07T02:17:50.255Z,10.30
2018-12-07T02:20:19.133Z,10.30
2018-12-07T02:22:48.427Z,10.30
2018-12-07T02:25:16.798Z,10.30
2018-12-07T02:27:50.751Z,10.40
2018-12-07T02:30:19.128Z,10.40
2018-12-07T02:32:49.369Z,10.40
2018-12-07T02:35:18.231Z,10.40
2018-12-07T02:37:47.547Z,10.40
2018-12-07T02:40:15.904Z,10.40
2018-12-07T02:42:46.229Z,10.40
2018-12-07T02:45:14.562Z,10.40
2018-12-07T02:47:43.482Z,10.40
2018-12-07T02:50:11.820Z,10.40
2018-12-07T02:52:40.261Z,10.50
2018-12-07T02:55:09.546Z,10.50
2018-12-07T02:57:37.905Z,10.50
2018-12-07T03:00:07.580Z,10.60
2018-12-07T03:02:36.040Z,10.60
2018-12-07T03:05:05.612Z,10.70
2018-12-07T03:07:34.220Z,10.70
2018-12-07T03:10:03.898Z,10.70
2018-12-07T03:12:32.210Z,10.60
2018-12-07T03:15:00.538Z,10.60
2018-12-07T03:17:28.886Z,10.50
2018-12-07T03:19:58.115Z,10.50
2018-12-07T03:22:26.552Z,10.40
2018-12-07T03:24:54.881Z,10.40
2018-12-07T03:27:23.280Z,10.40
2018-12-07T03:29:51.738Z,10.40
2018-12-07T03:32:20.071Z,10.30
2018-12-07T03:34:48.498Z,10.30
2018-12-07T03:37:18.744Z,10.30
2018-12-07T03:39:47.105Z,10.30
2018-12-07T03:42:15.490Z,10.20
2018-12-07T03:44:44.893Z,10.20
2018-12-07T03:47:14.153Z,10.20
2018-12-07T03:49:42.471Z,10.10
2018-12-07T03:52:11.840Z,10.10
2018-12-07T03:54:40.789Z,10.10
2018-12-07T03:57:09.082Z,10.10
2018-12-07T03:59:38.416Z,10.10
2018-12-07T04:02:06.809Z,10.10
2018-12-07T04:04:35.169Z,10.10
2018-12-07T04:07:04.179Z,10.10
2018-12-07T04:09:32.542Z,10.10
2018-12-07T04:12:01.388Z,10.10
2018-12-07T04:14:29.804Z,9.90
2018-12-07T04:16:58.202Z,9.80
2018-12-07T04:19:26.517Z,9.70
2018-12-07T04:21:55.325Z,9.60
2018-12-07T04:24:24.617Z,9.60
2018-12-07T04:26:54.944Z,9.60
2018-12-07T04:29:23.322Z,9.50
2018-12-07T04:31:51.648Z,9.50
2018-12-07T04:34:20.147Z,9.50
2018-12-07T04:36:48.455Z,9.50
2018-12-07T04:39:16.844Z,9.50
2018-12-07T04:41:45.307Z,9.50
2018-12-07T04:44:14.525Z,9.50
2018-12-07T04:46:43.004Z,9.50
2018-12-07T04:49:11.375Z,9.60
2018-12-07T04:51:39.690Z,9.60
2018-12-07T04:54:09.029Z,9.60
2018-12-07T04:56:37.383Z,9.70
2018-12-07T04:59:05.850Z,9.70
2018-12-07T05:01:34.320Z,9.80
2018-12-07T05:04:02.740Z,9.80
2018-12-07T05:06:31.051Z,9.90
2018-12-07T05:08:59.840Z,9.90
2018-12-07T05:11:28.231Z,9.90
2018-12-07T05:13:56.720Z,10.00
2018-12-07T05:16:25.993Z,10.00
2018-12-07T05:18:54.962Z,10.10
2018-12-07T05:21:25.359Z,10.10
2018-12-07T05:23:53.742Z,10.20
2018-12-07T05:26:23.069Z,10.20
2018-12-07T05:28:51.442Z,10.20
2018-12-07T05:31:19.851Z,10.30
2018-12-07T05:33:48.215Z,10.30
2018-12-07T05:36:16.577Z,10.30
2018-12-07T05:38:44.913Z,10.40
2018-12-07T05:41:13.256Z,10.30
2018-12-07T05:43:54.691Z,10.40
2018-12-07T05:46:23.202Z,10.40
2018-12-07T05:48:51.634Z,10.40
2018-12-07T05:51:19.995Z,10.40
2018-12-07T05:53:48.445Z,10.50
2018-12-07T05:56:16.773Z,10.50
2018-12-07T05:58:45.259Z,10.50
2018-12-07T06:01:13.671Z,10.60
2018-12-07T06:03:42.031Z,10.50
2018-12-07T06:06:10.391Z,10.50
2018-12-07T06:08:38.710Z,10.50
2018-12-07T06:11:07.094Z,10.50
2018-12-07T06:13:35.437Z,10.50
2018-12-07T06:16:03.773Z,10.50
2018-12-07T06:18:32.229Z,10.50
2018-12-07T06:21:00.605Z,10.50
2018-12-07T06:23:28.921Z,10.50
2018-12-07T06:25:57.329Z,10.40
2018-12-07T06:28:26.565Z,10.40
2018-12-07T06:30:55.839Z,10.40
2018-12-07T06:33:24.309Z,10.40
2018-12-07T06:35:54.556Z,10.40
2018-12-07T06:38:25.198Z,10.40
2018-12-07T06:40:54.470Z,10.40
2018-12-07T06:43:23.741Z,10.40
2018-12-07T06:45:52.103Z,10.40
2018-12-07T06:48:20.441Z,10.40
2018-12-07T06:50:49.671Z,10.40
2018-12-07T06:53:18.631Z,10.40
2018-12-07T06:55:46.971Z,10.40
2018-12-07T06:58:15.391Z,10.40
2018-12-07T07:00:44.254Z,10.30
2018-12-07T07:03:12.602Z,10.30
2018-12-07T07:05:40.976Z,10.30
2018-12-07T07:08:09.365Z,10.30
2018-12-07T07:10:38.597Z,10.30
2018-12-07T07:13:07.547Z,10.30
2018-12-07T07:15:36.829Z,10.30
2018-12-07T07:18:05.233Z,10.40
2018-12-07T07:20:33.544Z,10.40
2018-12-07T07:23:02.566Z,10.50
2018-12-07T07:25:31.192Z,10.50
2018-12-07T07:27:59.553Z,10.50
2018-12-07T07:30:27.993Z,10.50
2018-12-07T07:32:56.393Z,10.50
2018-12-07T07:35:24.757Z,10.50
2018-12-07T07:37:54.101Z,10.50
2018-12-07T07:40:22.426Z,10.50
2018-12-07T07:42:51.520Z,10.50
2018-12-07T07:45:19.852Z,10.50
2018-12-07T07:47:48.881Z,10.50
2018-12-07T07:50:17.245Z,10.50
2018-12-07T07:52:45.643Z,10.50
2018-12-07T07:55:14.023Z,10.50
2018-12-07T07:57:42.371Z,10.50
2018-12-07T08:00:10.824Z,10.50
2018-12-07T08:05:37.733Z,10.60
2018-12-07T08:08:07.021Z,10.60
2018-12-07T08:10:35.397Z,10.70
2018-12-07T08:16:00.935Z,10.80
2018-12-07T08:18:29.273Z,10.90
2018-12-07T08:20:57.721Z,10.90
2018-12-07T08:23:26.062Z,11.00
2018-12-07T08:25:55.308Z,11.00
2018-12-07T08:28:23.618Z,11.00
2018-12-07T08:30:53.968Z,11.10
2018-12-07T08:33:23.229Z,11.10
2018-12-07T08:35:51.667Z,11.30
2018-12-07T08:38:19.994Z,11.30
2018-12-07T08:40:48.302Z,11.30
2018-12-07T08:43:16.647Z,11.40
2018-12-07T08:45:44.975Z,11.40
2018-12-07T08:48:13.590Z,11.40
2018-12-07T08:50:41.904Z,11.40
2018-12-07T08:53:10.260Z,11.50
2018-12-07T08:55:38.661Z,11.50
2018-12-07T08:58:06.994Z,11.60
2018-12-07T09:00:37.305Z,11.70
2018-12-07T09:03:05.817Z,11.80
2018-12-07T09:05:35.088Z,11.80
2018-12-07T09:11:01.290Z,12.10
2018-12-07T09:13:30.246Z,12.30
2018-12-07T09:15:58.546Z,12.40
2018-12-07T09:18:26.981Z,12.40
2018-12-07T09:20:55.367Z,12.40
2018-12-07T09:23:23.665Z,12.50
2018-12-07T09:25:51.995Z,12.50
2018-12-07T09:28:20.393Z,12.60
2018-12-07T09:30:49.617Z,12.60
2018-12-07T09:33:17.938Z,12.80
2018-12-07T09:35:48.249Z,12.80
2018-12-07T09:38:17.600Z,12.90
2018-12-07T09:40:46.160Z,12.90
2018-12-07T09:43:15.421Z,12.90
2018-12-07T09:45:43.770Z,12.90
2018-12-07T09:48:12.158Z,12.90
2018-12-07T09:50:41.489Z,12.90
2018-12-07T09:53:09.824Z,12.90
2018-12-07T09:55:38.908Z,12.80
2018-12-07T09:58:08.226Z,12.70
2018-12-07T10:00:36.586Z,12.60
2018-12-07T10:03:04.953Z,12.60
2018-12-07T10:05:35.181Z,12.70
2018-12-07T10:08:03.630Z,12.50
2018-12-07T10:10:32.163Z,12.70
2018-12-07T10:13:07.722Z,12.80
2018-12-07T10:15:31.861Z,13.00
2018-12-07T10:18:00.792Z,13.10
2018-12-07T10:20:30.125Z,13.20
2018-12-07T10:22:59.419Z,13.30
2018-12-07T10:25:29.665Z,13.50
2018-12-07T10:27:58.632Z,13.50
2018-12-07T10:30:26.967Z,13.50
2018-12-07T10:32:56.255Z,13.50
2018-12-07T10:35:24.588Z,13.40
2018-12-07T10:37:53.067Z,13.50
2018-12-07T10:40:21.394Z,13.50
2018-12-07T10:42:49.696Z,13.50
2018-12-07T10:45:18.113Z,13.50
2018-12-07T10:47:50.237Z,13.70
2018-12-07T10:50:16.825Z,13.80
2018-12-07T10:52:46.219Z,13.90
2018-12-07T10:55:14.536Z,13.90
2018-12-07T10:57:44.295Z,13.70
2018-12-07T11:00:22.787Z,13.70
2018-12-07T11:02:52.714Z,13.80
2018-12-07T11:05:44.942Z,13.80
2018-12-07T11:08:19.284Z,13.80
2018-12-07T11:10:53.283Z,13.80
2018-12-07T11:13:28.325Z,13.90
2018-12-07T11:16:02.461Z,13.90
2018-12-07T11:18:36.631Z,14.00
2018-12-07T11:21:10.598Z,14.10
2018-12-07T11:23:44.536Z,14.00
2018-12-07T11:29:16.775Z,14.00
2018-12-07T11:34:52.073Z,13.40
2018-12-07T11:37:20.438Z,13.40
2018-12-07T11:39:49.710Z,13.20
2018-12-07T11:42:18.104Z,13.20
2018-12-07T11:44:46.394Z,13.10
2018-12-07T11:47:14.758Z,13.10
2018-12-07T11:49:43.127Z,13.00
2018-12-07T11:52:12.118Z,13.00
2018-12-07T11:54:40.469Z,12.60
2018-12-07T11:57:08.827Z,12.50
2018-12-07T11:59:37.168Z,12.50
2018-12-07T12:02:05.596Z,12.40
2018-12-07T12:04:34.032Z,12.30
2018-12-07T12:07:02.379Z,12.40
2018-12-07T12:09:30.720Z,12.50
2018-12-07T12:11:59.047Z,12.60
2018-12-07T12:14:27.465Z,12.70
2018-12-07T12:16:55.774Z,12.80
2018-12-07T12:19:25.060Z,12.90
2018-12-07T12:21:54.556Z,12.90
2018-12-07T12:24:22.890Z,12.80
2018-12-07T12:26:52.223Z,13.00
2018-12-07T12:29:21.575Z,13.00
2018-12-07T12:31:50.567Z,13.00
2018-12-07T12:34:18.934Z,13.10
2018-12-07T12:36:48.728Z,13.00
2018-12-07T12:39:18.090Z,12.90
2018-12-07T12:41:46.923Z,12.50
2018-12-07T12:44:15.696Z,12.40
2018-12-07T12:46:44.176Z,12.30
2018-12-07T12:49:12.518Z,12.20
2018-12-07T12:51:41.473Z,12.10
2018-12-07T12:54:09.872Z,12.20
2018-12-07T12:56:39.107Z,12.20
2018-12-07T12:59:07.435Z,12.20
2018-12-07T13:01:35.869Z,12.30
2018-12-07T13:04:04.219Z,12.30
2018-12-07T13:06:32.635Z,12.20
2018-12-07T13:09:01.112Z,12.10
2018-12-07T13:11:29.482Z,12.10
2018-12-07T13:13:57.824Z,12.10
2018-12-07T13:16:26.364Z,12.10
2018-12-07T13:18:54.736Z,12.30
2018-12-07T13:21:23.219Z,12.30
2018-12-07T13:23:51.821Z,12.10
2018-12-07T13:26:20.876Z,12.20
2018-12-07T13:28:50.230Z,12.30
2018-12-07T13:31:18.537Z,12.30
2018-12-07T13:33:46.859Z,12.30
2018-12-07T13:36:15.206Z,12.30
2018-12-07T13:38:43.538Z,12.20
2018-12-07T13:41:11.991Z,12.20
2018-12-07T13:43:40.498Z,12.20
2018-12-07T13:49:07.220Z,12.20
2018-12-07T13:51:35.769Z,12.30
2018-12-07T13:54:04.138Z,12.30
2018-12-07T13:56:32.638Z,12.30
2018-12-07T13:59:01.162Z,12.30
2018-12-07T14:01:29.741Z,12.30
2018-12-07T14:03:58.208Z,12.40
2018-12-07T14:06:26.858Z,12.40
2018-12-07T14:08:55.444Z,12.50
2018-12-07T14:11:24.194Z,12.60
2018-12-07T14:13:52.782Z,12.60
2018-12-07T14:16:21.271Z,12.50
2018-12-07T14:18:49.940Z,12.50
2018-12-07T14:21:18.728Z,12.40
2018-12-07T14:23:47.291Z,12.40
2018-12-07T14:26:15.893Z,12.20
2018-12-07T14:28:44.321Z,12.10
2018-12-07T14:31:12.942Z,12.00
2018-12-07T14:33:41.463Z,11.90
2018-12-07T14:36:10.032Z,11.80
2018-12-07T14:38:39.103Z,11.60
2018-12-07T14:41:07.500Z,11.50
2018-12-07T14:43:36.051Z,11.40
2018-12-07T14:46:04.671Z,11.40
2018-12-07T14:48:33.242Z,11.30
2018-12-07T14:51:01.708Z,11.20
2018-12-07T14:53:31.002Z,11.20
2018-12-07T14:55:59.737Z,11.10
2018-12-07T14:58:28.301Z,11.10
2018-12-07T15:00:57.045Z,11.00
2018-12-07T15:03:25.592Z,11.00
2018-12-07T15:05:54.140Z,10.90
2018-12-07T15:08:23.466Z,10.90
2018-12-07T15:10:51.941Z,10.80
2018-12-07T15:13:20.382Z,10.80
2018-12-07T15:15:49.118Z,10.70
2018-12-07T15:18:17.775Z,10.70
2018-12-07T15:20:46.278Z,10.60
2018-12-07T15:23:15.128Z,10.50
2018-12-07T15:25:44.563Z,10.40
2018-12-07T15:28:13.156Z,10.30
2018-12-07T15:30:41.625Z,10.20
2018-12-07T15:33:10.259Z,10.10
2018-12-07T15:35:38.979Z,10.00
2018-12-07T15:38:07.443Z,9.90
2018-12-07T15:40:35.835Z,9.90
2018-12-07T15:43:04.423Z,9.80
2018-12-07T15:45:32.957Z,9.80
2018-12-07T15:48:02.245Z,9.70
2018-12-07T15:50:30.804Z,9.70
2018-12-07T15:52:59.301Z,9.70
2018-12-07T15:55:28.224Z,9.60
2018-12-07T15:57:56.645Z,9.60
2018-12-07T16:00:25.311Z,9.50
2018-12-07T16:02:55.626Z,9.50
2018-12-07T16:05:24.129Z,9.50
2018-12-07T16:07:52.769Z,9.60
2018-12-07T16:10:21.303Z,9.60
2018-12-07T16:12:49.812Z,9.60
2018-12-07T16:15:18.216Z,9.60
2018-12-07T16:17:46.828Z,9.50
2018-12-07T16:20:15.330Z,9.60
2018-12-07T16:22:43.826Z,9.40
2018-12-07T16:25:12.423Z,9.50
2018-12-07T16:27:40.940Z,9.40
2018-12-07T16:30:10.632Z,9.20
2018-12-07T16:32:39.283Z,9.30
2018-12-07T16:35:07.730Z,9.30
2018-12-07T16:37:36.357Z,9.30
2018-12-07T16:40:06.658Z,9.20
2018-12-07T16:42:36.039Z,9.10
2018-12-07T16:45:04.907Z,9.00
2018-12-07T16:50:35.420Z,8.80
2018-12-07T16:53:03.774Z,8.60
2018-12-07T16:55:32.145Z,8.50
2018-12-07T16:58:01.474Z,8.40
2018-12-07T17:00:30.001Z,8.40
2018-12-07T17:02:58.443Z,8.40
2018-12-07T17:05:27.084Z,8.30
2018-12-07T17:07:55.841Z,8.20
2018-12-07T17:10:25.282Z,8.20
2018-12-07T17:15:59.336Z,8.30
2018-12-07T17:18:27.654Z,8.40
2018-12-07T17:20:57.023Z,8.40
2018-12-07T17:23:25.502Z,8.30
2018-12-07T17:25:54.194Z,8.30
2018-12-07T17:28:22.871Z,8.20
2018-12-07T17:30:51.567Z,8.10
2018-12-07T17:33:20.629Z,8.00
2018-12-07T17:35:48.994Z,8.00
2018-12-07T17:38:17.365Z,8.10
2018-12-07T17:40:46.441Z,8.10
2018-12-07T17:43:14.964Z,8.00
2018-12-07T17:45:43.372Z,8.20
2018-12-07T17:48:12.017Z,8.30
2018-12-07T17:50:40.539Z,8.40
2018-12-07T17:53:09.778Z,8.80
2018-12-07T17:55:38.141Z,9.00
2018-12-07T17:58:07.256Z,9.20
2018-12-07T18:00:36.509Z,9.40
2018-12-07T18:03:04.889Z,9.40
2018-12-07T18:05:34.007Z,9.50
2018-12-07T18:08:02.451Z,9.50
2018-12-07T18:10:31.137Z,9.70
2018-12-07T18:12:59.620Z,9.70
2018-12-07T18:15:28.190Z,9.70
2018-12-07T18:17:56.567Z,9.90
2018-12-07T18:20:25.244Z,10.00
2018-12-07T18:22:53.794Z,10.20
2018-12-07T18:25:22.410Z,10.30
2018-12-07T18:27:51.013Z,10.40
2018-12-07T18:30:19.532Z,10.50
2018-12-07T18:32:48.994Z,10.60
2018-12-07T18:35:17.496Z,10.60
2018-12-07T18:37:46.017Z,10.60
2018-12-07T18:40:14.621Z,10.50
2018-12-07T18:42:43.030Z,10.60
2018-12-07T18:45:11.710Z,10.60
2018-12-07T18:47:40.321Z,10.60
2018-12-07T18:50:08.878Z,10.60
2018-12-07T18:52:37.440Z,10.60
2018-12-07T18:55:06.776Z,10.50
2018-12-07T18:57:35.140Z,10.50
2018-12-07T19:00:05.143Z,10.50
2018-12-07T19:02:33.620Z,10.50
2018-12-07T19:05:02.358Z,10.60
2018-12-07T19:07:30.991Z,10.60
2018-12-07T19:09:59.454Z,10.60
2018-12-07T19:12:27.956Z,10.60
2018-12-07T19:14:56.569Z,10.70
2018-12-07T19:17:25.023Z,10.70
2018-12-07T19:19:53.680Z,10.70
2018-12-07T19:22:22.955Z,10.60
2018-12-07T19:24:52.438Z,10.60
2018-12-07T19:27:22.932Z,10.60
2018-12-07T19:29:52.391Z,10.50
2018-12-07T19:32:21.827Z,10.50
2018-12-07T19:34:50.481Z,10.40
2018-12-07T19:37:19.018Z,10.40
2018-12-07T19:39:47.461Z,10.40
2018-12-07T19:42:16.302Z,10.30
2018-12-07T19:44:45.218Z,10.20
2018-12-07T19:47:13.690Z,10.20
2018-12-07T19:52:43.215Z,10.10
2018-12-07T19:55:11.589Z,10.00
2018-12-07T19:57:40.846Z,9.90
2018-12-07T20:00:10.584Z,9.80
2018-12-07T20:02:39.244Z,9.70
2018-12-07T20:05:07.692Z,9.70
2018-12-07T20:07:36.259Z,9.60
2018-12-07T20:10:06.089Z,9.60
2018-12-07T20:12:34.664Z,9.60
2018-12-07T20:15:03.360Z,9.50
2018-12-07T20:17:33.261Z,9.50
2018-12-07T20:20:03.143Z,9.50
2018-12-07T20:22:33.800Z,9.50
2018-12-07T20:25:02.303Z,9.40
2018-12-07T20:27:31.785Z,9.40
2018-12-07T20:32:57.862Z,9.40
2018-12-07T20:35:26.320Z,9.40
2018-12-07T20:37:54.852Z,9.40
2018-12-07T20:40:23.252Z,9.50
2018-12-07T20:42:52.171Z,9.40
2018-12-07T20:45:21.375Z,9.40
2018-12-07T20:47:49.925Z,9.40
2018-12-07T20:50:18.227Z,9.40
2018-12-07T20:52:46.788Z,9.40
2018-12-07T20:55:15.250Z,9.50
2018-12-07T20:57:43.800Z,9.60
2018-12-07T21:00:12.405Z,9.60
2018-12-07T21:02:41.495Z,9.70
2018-12-07T21:07:06.711Z,9.90
2018-12-07T21:09:35.356Z,9.90
2018-12-07T21:12:10.809Z,10.00
2018-12-07T21:14:39.553Z,10.00
2018-12-07T21:17:10.215Z,10.10
2018-12-07T21:19:43.499Z,10.10
2018-12-07T21:22:12.329Z,10.10
2018-12-07T21:24:40.937Z,10.10
2018-12-07T21:27:09.418Z,10.10
2018-12-07T21:29:38.267Z,10.10
2018-12-07T21:32:09.751Z,9.90
2018-12-07T21:37:36.320Z,7.90
2018-12-07T21:40:08.875Z,7.60
2018-12-07T21:42:37.554Z,7.50
2018-12-07T21:45:06.309Z,7.50
2018-12-07T21:47:45.354Z,7.50
2018-12-07T21:50:15.813Z,7.40
2018-12-07T21:52:44.392Z,7.40
2018-12-07T21:55:13.219Z,7.50
2018-12-07T21:57:42.354Z,7.50
2018-12-07T22:00:11.029Z,7.40
2018-12-07T22:02:39.947Z,7.40
2018-12-07T22:05:09.259Z,7.50
2018-12-07T22:07:37.866Z,7.50
2018-12-07T22:10:06.435Z,7.50
2018-12-07T22:12:34.962Z,7.40
2018-12-07T22:15:03.865Z,7.40
2018-12-07T22:17:32.622Z,7.40
2018-12-07T22:20:00.977Z,7.40
2018-12-07T22:22:29.657Z,7.40
2018-12-07T22:24:58.190Z,7.40
2018-12-07T22:27:26.779Z,7.40
2018-12-07T22:29:55.237Z,7.40
2018-12-07T22:32:23.640Z,7.50
2018-12-07T22:34:52.168Z,7.50
2018-12-07T22:37:20.559Z,7.50
2018-12-07T22:39:48.981Z,7.60
2018-12-07T22:42:17.499Z,7.50
2018-12-07T22:44:46.158Z,7.50
2018-12-07T22:47:14.733Z,7.50
2018-12-07T22:49:43.149Z,7.50
2018-12-07T22:52:11.606Z,7.40
2018-12-07T22:54:40.926Z,7.40
2018-12-07T22:57:09.235Z,7.30
2018-12-07T22:59:37.592Z,7.20
2018-12-07T23:02:06.949Z,7.10
2018-12-07T23:04:37.243Z,7.00
2018-12-07T23:07:05.831Z,7.00
2018-12-07T23:09:34.683Z,6.90
2018-12-07T23:12:02.989Z,6.80
2018-12-07T23:14:31.420Z,6.70
2018-12-07T23:16:59.729Z,6.60
2018-12-07T23:19:28.162Z,6.50
2018-12-07T23:21:57.547Z,6.50
2018-12-07T23:24:26.142Z,6.40
2018-12-07T23:26:54.431Z,6.50
2018-12-07T23:29:24.676Z,6.40
2018-12-07T23:31:53.185Z,6.50
2018-12-07T23:34:21.534Z,6.50
2018-12-07T23:36:49.918Z,6.50
2018-12-07T23:39:18.193Z,6.50
2018-12-07T23:41:46.576Z,6.50
2018-12-07T23:44:15.829Z,6.50
2018-12-07T23:46:44.334Z,6.40
2018-12-07T23:49:12.776Z,6.40
2018-12-07T23:51:41.170Z,6.40
2018-12-07T23:54:10.537Z,6.40
2018-12-07T23:56:40.873Z,6.40
2018-12-07T23:59:09.181Z,6.50
